createdAt,value
2022-10-25T00:01:48.734Z,55.69
2022-10-25T00:04:16.602Z,55.62
2022-10-25T00:06:44.027Z,55.80
2022-10-25T00:09:11.565Z,55.83
2022-10-25T00:11:38.659Z,56.02
2022-10-25T00:14:07.832Z,56.24
2022-10-25T00:16:38.202Z,56.07
2022-10-25T00:19:06.186Z,56.25
2022-10-25T00:21:33.527Z,56.25
2022-10-25T00:24:00.543Z,56.17
2022-10-25T00:26:27.599Z,56.28
2022-10-25T00:28:55.933Z,56.23
2022-10-25T00:31:24.672Z,56.16
2022-10-25T00:33:51.943Z,56.01
2022-10-25T00:36:23.012Z,56.11
2022-10-25T00:38:50.431Z,56.01
2022-10-25T00:41:25.641Z,55.84
2022-10-25T00:44:18.176Z,55.66
2022-10-25T00:46:45.920Z,55.44
2022-10-25T00:49:19.774Z,55.40
2022-10-25T00:51:58.065Z,55.41
2022-10-25T00:54:30.675Z,55.22
2022-10-25T00:57:02.347Z,54.91
2022-10-25T00:59:29.931Z,54.64
2022-10-25T01:01:57.716Z,54.68
2022-10-25T01:04:31.093Z,54.43
2022-10-25T01:06:58.953Z,54.37
2022-10-25T01:09:29.838Z,54.53
2022-10-25T01:11:57.103Z,54.69
2022-10-25T01:14:24.508Z,54.60
2022-10-25T01:17:25.219Z,54.41
2022-10-25T01:20:38.688Z,54.46
2022-10-25T01:23:25.711Z,54.52
2022-10-25T01:26:49.105Z,54.64
2022-10-25T01:30:00.722Z,54.64
2022-10-25T01:33:19.771Z,54.84
2022-10-25T01:35:56.831Z,54.90
2022-10-25T01:38:37.922Z,55.11
2022-10-25T01:41:18.453Z,55.08
2022-10-25T01:43:57.923Z,55.22
2022-10-25T01:46:36.677Z,55.33
2022-10-25T01:49:06.766Z,55.55
2022-10-25T01:51:37.084Z,55.70
2022-10-25T01:54:21.575Z,55.47
2022-10-25T01:57:08.992Z,55.64
2022-10-25T01:59:54.536Z,55.98
2022-10-25T02:02:49.298Z,56.00
2022-10-25T02:05:18.199Z,56.03
2022-10-25T02:08:41.272Z,55.95
2022-10-25T02:11:31.715Z,56.30
2022-10-25T02:14:27.631Z,56.06
2022-10-25T02:17:19.192Z,56.05
2022-10-25T02:19:50.664Z,56.15
2022-10-25T02:22:22.483Z,56.11
2022-10-25T02:24:51.781Z,56.13
2022-10-25T02:27:23.271Z,56.00
2022-10-25T02:29:52.692Z,56.03
2022-10-25T02:32:20.340Z,56.22
2022-10-25T02:34:51.247Z,55.80
2022-10-25T02:37:18.784Z,56.05
2022-10-25T02:39:46.617Z,55.80
2022-10-25T02:42:13.622Z,55.67
2022-10-25T02:44:40.824Z,55.69
2022-10-25T02:47:07.933Z,55.82
2022-10-25T02:49:34.987Z,55.84
2022-10-25T02:52:02.012Z,55.61
2022-10-25T02:54:29.319Z,55.52
2022-10-25T02:56:56.321Z,55.53
2022-10-25T02:59:23.484Z,55.49
2022-10-25T03:01:50.536Z,55.63
2022-10-25T03:04:17.625Z,55.76
2022-10-25T03:06:44.674Z,55.71
2022-10-25T03:09:11.718Z,55.96
2022-10-25T03:11:38.881Z,56.07
2022-10-25T03:14:05.970Z,56.08
2022-10-25T03:16:32.999Z,56.01
2022-10-25T03:19:00.150Z,56.08
2022-10-25T03:21:27.356Z,56.18
2022-10-25T03:23:54.463Z,56.31
2022-10-25T03:26:21.469Z,56.40
2022-10-25T03:28:48.630Z,56.38
2022-10-25T03:31:18.174Z,56.40
2022-10-25T03:33:45.244Z,56.56
2022-10-25T03:36:12.926Z,56.74
2022-10-25T03:38:40.327Z,56.68
2022-10-25T03:41:07.406Z,56.50
2022-10-25T03:43:34.485Z,56.72
2022-10-25T03:46:01.513Z,56.61
2022-10-25T03:48:28.642Z,56.67
2022-10-25T03:50:55.910Z,56.83
2022-10-25T03:53:22.953Z,56.78
2022-10-25T03:55:49.996Z,56.69
2022-10-25T03:58:17.311Z,56.81
2022-10-25T04:00:44.397Z,57.08
2022-10-25T04:03:11.921Z,57.09
2022-10-25T04:05:39.074Z,57.23
2022-10-25T04:08:06.376Z,57.25
2022-10-25T04:10:33.888Z,57.37
2022-10-25T04:13:00.934Z,57.43
2022-10-25T04:15:28.303Z,57.23
2022-10-25T04:17:55.352Z,57.31
2022-10-25T04:20:22.749Z,57.14
2022-10-25T04:22:57.156Z,56.76
2022-10-25T04:25:26.758Z,56.78
2022-10-25T04:27:54.425Z,56.29
2022-10-25T04:30:21.493Z,56.24
2022-10-25T04:32:49.105Z,56.16
2022-10-25T04:35:16.581Z,55.75
2022-10-25T04:37:43.594Z,55.71
2022-10-25T04:40:11.434Z,55.79
2022-10-25T04:42:38.486Z,55.96
2022-10-25T04:45:06.243Z,55.89
2022-10-25T04:47:33.945Z,55.70
2022-10-25T04:50:01.038Z,55.72
2022-10-25T04:52:32.028Z,55.68
2022-10-25T04:54:59.145Z,55.72
2022-10-25T04:57:26.625Z,55.83
2022-10-25T04:59:53.903Z,55.81
2022-10-25T05:02:20.937Z,55.78
2022-10-25T05:04:48.016Z,55.77
2022-10-25T05:07:18.778Z,55.91
2022-10-25T05:09:47.505Z,55.97
2022-10-25T05:12:15.464Z,55.90
2022-10-25T05:14:42.575Z,56.10
2022-10-25T05:17:09.655Z,56.27
2022-10-25T05:19:36.657Z,56.38
2022-10-25T05:22:03.975Z,56.52
2022-10-25T05:24:31.102Z,56.36
2022-10-25T05:26:58.189Z,56.18
2022-10-25T05:29:25.398Z,56.13
2022-10-25T05:31:52.499Z,56.25
2022-10-25T05:34:19.539Z,56.24
2022-10-25T05:36:46.826Z,56.27
2022-10-25T05:39:13.883Z,56.13
2022-10-25T05:41:41.004Z,55.99
2022-10-25T05:44:08.192Z,55.91
2022-10-25T05:46:35.633Z,55.78
2022-10-25T05:49:03.230Z,55.72
2022-10-25T05:51:35.134Z,55.60
2022-10-25T05:54:12.263Z,55.51
2022-10-25T05:56:41.585Z,55.49
2022-10-25T05:59:14.685Z,55.41
2022-10-25T06:01:45.349Z,55.37
2022-10-25T06:04:13.335Z,55.20
2022-10-25T06:06:42.248Z,55.13
2022-10-25T06:09:10.007Z,55.00
2022-10-25T06:11:38.402Z,54.95
2022-10-25T06:14:06.358Z,55.02
2022-10-25T06:16:33.684Z,55.04
2022-10-25T06:19:00.695Z,54.77
2022-10-25T06:21:29.682Z,54.72
2022-10-25T06:23:58.503Z,54.50
2022-10-25T06:26:29.048Z,53.78
2022-10-25T06:29:00.189Z,53.94
2022-10-25T06:31:28.652Z,53.86
2022-10-25T06:33:56.024Z,53.63
2022-10-25T06:36:24.901Z,53.65
2022-10-25T06:38:52.083Z,53.45
2022-10-25T06:41:27.734Z,53.37
2022-10-25T06:43:55.769Z,53.29
2022-10-25T06:46:33.141Z,53.20
2022-10-25T06:49:02.002Z,53.09
2022-10-25T06:51:29.798Z,52.98
2022-10-25T06:54:02.616Z,53.25
2022-10-25T06:56:29.879Z,52.92
2022-10-25T06:58:57.127Z,52.62
2022-10-25T07:01:25.843Z,52.85
2022-10-25T07:03:54.993Z,52.42
2022-10-25T07:06:29.568Z,51.98
2022-10-25T07:09:01.276Z,51.62
2022-10-25T07:11:31.353Z,51.71
2022-10-25T07:14:00.402Z,51.71
2022-10-25T07:16:28.986Z,51.50
2022-10-25T07:19:04.027Z,51.34
2022-10-25T07:21:33.353Z,51.51
2022-10-25T07:24:00.768Z,51.53
2022-10-25T07:26:32.020Z,51.64
2022-10-25T07:29:00.810Z,51.30
2022-10-25T07:31:35.375Z,51.36
2022-10-25T07:34:04.563Z,51.32
2022-10-25T07:36:31.981Z,51.13
2022-10-25T07:38:59.215Z,51.05
2022-10-25T07:41:26.937Z,50.25
2022-10-25T07:43:55.216Z,50.10
2022-10-25T07:46:23.162Z,50.48
2022-10-25T07:48:52.432Z,49.63
2022-10-25T07:51:19.900Z,49.23
2022-10-25T07:53:47.555Z,49.58
2022-10-25T07:56:20.647Z,49.08
2022-10-25T07:58:52.294Z,48.98
2022-10-25T08:01:23.314Z,49.06
2022-10-25T08:03:52.424Z,48.97
2022-10-25T08:06:22.094Z,49.09
2022-10-25T08:08:49.921Z,48.82
2022-10-25T08:11:17.456Z,48.60
2022-10-25T08:13:44.613Z,48.64
2022-10-25T08:16:11.819Z,48.78
2022-10-25T08:18:38.893Z,48.38
2022-10-25T08:21:05.987Z,48.88
2022-10-25T08:23:33.228Z,48.53
2022-10-25T08:26:01.537Z,48.28
2022-10-25T08:28:31.370Z,47.68
2022-10-25T08:31:01.225Z,47.37
2022-10-25T08:33:29.234Z,47.97
2022-10-25T08:35:59.816Z,48.42
2022-10-25T08:38:26.902Z,48.35
2022-10-25T08:41:10.280Z,48.13
2022-10-25T08:44:05.810Z,48.24
2022-10-25T08:46:48.347Z,47.53
2022-10-25T08:49:27.897Z,47.13
2022-10-25T08:51:56.489Z,47.13
2022-10-25T08:54:28.951Z,47.18
2022-10-25T08:57:16.059Z,46.85
2022-10-25T08:59:51.460Z,46.29
2022-10-25T09:03:01.465Z,46.79
2022-10-25T09:05:50.036Z,46.41
2022-10-25T09:08:47.831Z,46.52
2022-10-25T09:11:54.975Z,46.46
2022-10-25T09:14:49.797Z,46.28
2022-10-25T09:17:31.722Z,46.01
2022-10-25T09:20:19.795Z,46.05
2022-10-25T09:23:00.640Z,46.48
2022-10-25T09:25:50.551Z,46.48
2022-10-25T09:28:36.271Z,45.88
2022-10-25T09:31:05.250Z,45.11
2022-10-25T09:33:34.899Z,45.92
2022-10-25T09:36:05.030Z,46.34
2022-10-25T09:38:45.245Z,46.49
2022-10-25T09:41:35.960Z,46.82
2022-10-25T09:44:44.216Z,47.08
2022-10-25T09:47:37.894Z,46.63
2022-10-25T09:50:32.208Z,46.94
2022-10-25T09:53:12.257Z,46.94
2022-10-25T09:55:51.382Z,47.38
2022-10-25T09:58:31.051Z,47.33
2022-10-25T10:01:20.530Z,46.54
2022-10-25T10:03:52.281Z,47.15
2022-10-25T10:06:40.752Z,46.94
2022-10-25T10:09:12.231Z,46.68
2022-10-25T10:11:41.431Z,47.05
2022-10-25T10:14:18.235Z,46.79
2022-10-25T10:16:55.316Z,46.26
2022-10-25T10:19:30.162Z,46.24
2022-10-25T10:22:02.015Z,45.74
2022-10-25T10:24:33.849Z,45.84
2022-10-25T10:27:06.675Z,46.31
2022-10-25T10:29:37.191Z,47.00
2022-10-25T10:32:29.100Z,46.51
2022-10-25T10:34:58.577Z,46.42
2022-10-25T10:37:31.185Z,46.05
2022-10-25T10:40:07.561Z,46.08
2022-10-25T10:42:37.917Z,45.66
2022-10-25T10:45:08.305Z,46.05
2022-10-25T10:47:39.748Z,45.84
2022-10-25T10:50:13.384Z,45.67
2022-10-25T10:52:45.214Z,45.19
2022-10-25T10:55:47.954Z,44.91
2022-10-25T10:58:37.991Z,44.79
2022-10-25T11:01:37.014Z,45.21
2022-10-25T11:04:04.275Z,44.79
2022-10-25T11:06:35.510Z,45.27
2022-10-25T11:09:23.558Z,42.95
2022-10-25T11:12:11.718Z,42.15
2022-10-25T11:14:38.932Z,40.19
2022-10-25T11:17:27.815Z,39.08
2022-10-25T11:20:19.310Z,38.51
2022-10-25T11:23:08.429Z,40.05
2022-10-25T11:25:51.404Z,38.59
2022-10-25T11:28:40.059Z,35.68
2022-10-25T11:31:47.684Z,33.26
2022-10-25T11:34:19.162Z,34.79
2022-10-25T11:36:55.051Z,35.56
2022-10-25T11:40:14.232Z,33.86
2022-10-25T11:43:07.674Z,33.95
2022-10-25T11:45:45.046Z,31.82
2022-10-25T11:49:01.883Z,30.98
2022-10-25T11:51:40.560Z,31.43
2022-10-25T11:54:25.583Z,31.05
2022-10-25T11:57:14.196Z,29.24
2022-10-25T12:00:04.644Z,29.60
2022-10-25T12:03:02.775Z,29.70
2022-10-25T12:05:46.224Z,31.67
2022-10-25T12:09:05.116Z,33.26
2022-10-25T12:11:39.519Z,34.07
2022-10-25T12:14:13.850Z,32.96
2022-10-25T12:16:42.358Z,31.10
2022-10-25T12:19:19.515Z,30.66
2022-10-25T12:21:56.666Z,30.40
2022-10-25T12:25:08.754Z,31.84
2022-10-25T12:27:37.369Z,32.80
2022-10-25T12:30:17.280Z,31.38
2022-10-25T12:32:56.436Z,29.39
2022-10-25T12:35:36.587Z,28.04
2022-10-25T12:38:13.241Z,29.40
2022-10-25T12:40:45.428Z,29.37
2022-10-25T12:43:40.956Z,30.21
2022-10-25T12:46:29.432Z,31.61
2022-10-25T12:49:21.152Z,29.00
2022-10-25T12:52:33.284Z,29.55
2022-10-25T12:55:15.657Z,28.61
2022-10-25T12:58:47.572Z,29.75
2022-10-25T13:01:45.262Z,32.01
2022-10-25T13:04:50.414Z,31.91
2022-10-25T13:07:18.022Z,31.43
2022-10-25T13:09:45.371Z,29.49
2022-10-25T13:12:15.651Z,29.60
2022-10-25T13:15:01.953Z,28.92
2022-10-25T13:17:44.095Z,29.08
2022-10-25T13:20:20.366Z,31.59
2022-10-25T13:22:47.688Z,33.40
2022-10-25T13:26:00.430Z,33.45
2022-10-25T13:28:35.289Z,35.17
2022-10-25T13:31:34.439Z,35.52
2022-10-25T13:34:13.739Z,34.04
2022-10-25T13:36:58.230Z,31.25
2022-10-25T13:39:43.813Z,32.16
2022-10-25T13:42:16.924Z,33.93
2022-10-25T13:45:09.690Z,35.79
2022-10-25T13:47:49.440Z,36.46
2022-10-25T13:50:27.238Z,37.19
2022-10-25T13:53:22.483Z,36.41
2022-10-25T13:56:14.494Z,37.08
2022-10-25T13:58:45.386Z,37.85
2022-10-25T14:01:15.658Z,38.54
2022-10-25T14:04:01.976Z,39.26
2022-10-25T14:06:42.558Z,39.86
2022-10-25T14:09:31.028Z,40.84
2022-10-25T14:12:07.613Z,41.26
2022-10-25T14:14:48.255Z,41.90
2022-10-25T14:17:32.851Z,41.82
2022-10-25T14:20:10.135Z,42.56
2022-10-25T14:22:42.106Z,42.81
2022-10-25T14:25:18.240Z,41.88
2022-10-25T14:27:45.462Z,42.12
2022-10-25T14:30:26.350Z,40.11
2022-10-25T14:33:00.332Z,39.14
2022-10-25T14:35:47.244Z,37.88
2022-10-25T14:38:38.929Z,38.37
2022-10-25T14:41:12.883Z,39.74
2022-10-25T14:43:42.113Z,40.97
2022-10-25T14:46:16.303Z,41.94
2022-10-25T14:48:49.271Z,41.42
2022-10-25T14:51:43.642Z,41.60
2022-10-25T14:54:10.677Z,42.23
2022-10-25T14:56:45.117Z,42.39
2022-10-25T14:59:33.334Z,42.51
2022-10-25T15:02:04.927Z,42.99
2022-10-25T15:04:40.523Z,43.50
2022-10-25T15:07:30.503Z,43.32
2022-10-25T15:10:01.492Z,43.22
2022-10-25T15:12:31.052Z,43.65
2022-10-25T15:15:44.840Z,43.42
2022-10-25T15:18:32.010Z,44.78
2022-10-25T15:21:09.610Z,44.82
2022-10-25T15:23:39.735Z,44.93
2022-10-25T15:26:30.505Z,45.27
2022-10-25T15:29:01.167Z,45.24
2022-10-25T15:31:32.086Z,45.55
2022-10-25T15:34:02.704Z,45.81
2022-10-25T15:36:33.224Z,45.91
2022-10-25T15:39:11.404Z,46.02
2022-10-25T15:41:41.380Z,46.42
2022-10-25T15:44:08.475Z,46.36
2022-10-25T15:46:35.861Z,46.73
2022-10-25T15:49:09.497Z,47.19
2022-10-25T15:51:43.354Z,47.65
2022-10-25T15:54:23.101Z,47.89
2022-10-25T15:56:51.793Z,48.17
2022-10-25T15:59:18.928Z,48.88
2022-10-25T16:01:50.175Z,48.98
2022-10-25T16:04:19.173Z,49.02
2022-10-25T16:06:47.012Z,49.30
2022-10-25T16:09:14.141Z,49.54
2022-10-25T16:11:46.949Z,49.75
2022-10-25T16:14:25.882Z,49.88
2022-10-25T16:16:53.407Z,50.21
2022-10-25T16:19:22.019Z,50.43
2022-10-25T16:21:49.253Z,50.61
2022-10-25T16:24:16.373Z,50.75
2022-10-25T16:26:46.902Z,50.54
2022-10-25T16:29:25.274Z,50.90
2022-10-25T16:31:54.085Z,51.08
2022-10-25T16:34:23.090Z,51.30
2022-10-25T16:36:52.458Z,51.51
2022-10-25T16:39:19.577Z,51.69
2022-10-25T16:41:47.863Z,51.76
2022-10-25T16:44:18.890Z,51.88
2022-10-25T16:46:46.716Z,52.26
2022-10-25T16:49:13.894Z,52.13
2022-10-25T16:51:41.788Z,52.24
2022-10-25T16:54:12.038Z,52.39
2022-10-25T16:56:39.601Z,52.21
2022-10-25T16:59:06.731Z,52.69
2022-10-25T17:01:38.035Z,52.71
2022-10-25T17:04:09.844Z,52.96
2022-10-25T17:06:41.356Z,53.21
2022-10-25T17:09:10.036Z,53.34
2022-10-25T17:11:37.148Z,53.32
2022-10-25T17:14:04.718Z,53.64
2022-10-25T17:16:33.341Z,53.69
2022-10-25T17:19:00.524Z,53.69
2022-10-25T17:21:28.396Z,53.74
2022-10-25T17:23:56.436Z,53.68
2022-10-25T17:26:23.457Z,53.52
2022-10-25T17:28:50.779Z,53.18
2022-10-25T17:31:17.980Z,53.29
2022-10-25T17:33:45.118Z,53.41
2022-10-25T17:36:14.649Z,53.41
2022-10-25T17:38:41.954Z,53.34
2022-10-25T17:41:09.584Z,53.41
2022-10-25T17:43:38.375Z,53.34
2022-10-25T17:46:10.470Z,53.31
2022-10-25T17:48:37.600Z,53.30
2022-10-25T17:51:08.298Z,53.53
2022-10-25T17:53:35.902Z,53.77
2022-10-25T17:56:19.333Z,54.12
2022-10-25T17:58:48.798Z,54.18
2022-10-25T18:01:20.345Z,54.73
2022-10-25T18:03:48.008Z,54.82
2022-10-25T18:06:18.954Z,54.83
2022-10-25T18:08:54.270Z,55.04
2022-10-25T18:11:23.527Z,54.89
2022-10-25T18:13:53.517Z,54.87
2022-10-25T18:16:26.396Z,54.79
2022-10-25T18:18:56.381Z,54.85
2022-10-25T18:21:23.995Z,55.10
2022-10-25T18:23:55.979Z,54.86
2022-10-25T18:26:25.120Z,54.64
2022-10-25T18:28:53.174Z,54.48
2022-10-25T18:31:21.133Z,54.37
2022-10-25T18:33:48.985Z,54.46
2022-10-25T18:36:19.736Z,54.55
2022-10-25T18:38:51.578Z,54.73
2022-10-25T18:41:24.798Z,54.70
2022-10-25T18:43:53.615Z,54.68
2022-10-25T18:46:21.251Z,54.84
2022-10-25T18:48:53.412Z,54.95
2022-10-25T18:51:23.247Z,55.53
2022-10-25T18:53:59.657Z,55.47
2022-10-25T18:56:28.844Z,55.59
2022-10-25T18:58:57.052Z,55.79
2022-10-25T19:01:27.953Z,55.71
2022-10-25T19:03:57.266Z,55.83
2022-10-25T19:06:24.899Z,56.07
2022-10-25T19:08:52.251Z,55.98
2022-10-25T19:11:19.710Z,56.12
2022-10-25T19:13:50.370Z,56.31
2022-10-25T19:16:18.776Z,56.47
2022-10-25T19:18:45.930Z,56.84
2022-10-25T19:21:19.413Z,57.39
2022-10-25T19:23:47.334Z,57.53
2022-10-25T19:26:20.728Z,57.79
2022-10-25T19:28:55.628Z,57.84
2022-10-25T19:31:22.800Z,58.07
2022-10-25T19:33:51.118Z,58.47
2022-10-25T19:36:19.074Z,58.36
2022-10-25T19:38:48.369Z,58.18
2022-10-25T19:41:19.874Z,58.50
2022-10-25T19:43:47.728Z,58.87
2022-10-25T19:46:15.797Z,59.18
2022-10-25T19:48:42.916Z,59.27
2022-10-25T19:51:19.571Z,59.21
2022-10-25T19:53:47.346Z,59.14
2022-10-25T19:56:23.088Z,59.22
2022-10-25T19:58:51.270Z,59.54
2022-10-25T20:01:29.283Z,59.72
2022-10-25T20:03:58.177Z,59.67
2022-10-25T20:06:29.402Z,59.76
2022-10-25T20:08:58.816Z,59.74
2022-10-25T20:11:27.960Z,59.65
2022-10-25T20:13:58.377Z,59.96
2022-10-25T20:16:27.134Z,60.22
2022-10-25T20:18:54.728Z,60.40
2022-10-25T20:21:30.410Z,60.57
2022-10-25T20:24:04.731Z,60.50
2022-10-25T20:26:38.665Z,60.56
2022-10-25T20:29:20.118Z,60.45
2022-10-25T20:31:52.098Z,60.56
2022-10-25T20:34:20.405Z,60.47
2022-10-25T20:36:48.396Z,60.93
2022-10-25T20:39:15.683Z,60.63
2022-10-25T20:41:42.918Z,60.65
2022-10-25T20:44:10.707Z,60.58
2022-10-25T20:46:37.697Z,60.67
2022-10-25T20:49:07.405Z,60.96
2022-10-25T20:51:35.057Z,61.07
2022-10-25T20:54:05.281Z,61.05
2022-10-25T20:56:32.656Z,60.90
2022-10-25T20:58:59.689Z,60.75
2022-10-25T21:01:26.774Z,60.97
2022-10-25T21:03:54.138Z,61.34
2022-10-25T21:06:21.193Z,61.40
2022-10-25T21:08:48.266Z,61.00
2022-10-25T21:11:15.346Z,61.26
2022-10-25T21:13:42.431Z,61.61
2022-10-25T21:16:12.992Z,61.56
2022-10-25T21:18:41.123Z,61.72
2022-10-25T21:21:15.029Z,61.93
2022-10-25T21:23:42.022Z,61.76
2022-10-25T21:26:10.106Z,61.76
2022-10-25T21:28:40.096Z,61.67
2022-10-25T21:31:13.595Z,62.15
2022-10-25T21:33:41.996Z,62.17
2022-10-25T21:36:12.800Z,62.21
2022-10-25T21:38:48.189Z,62.22
2022-10-25T21:41:20.727Z,61.87
2022-10-25T21:43:52.655Z,61.68
2022-10-25T21:46:21.846Z,61.77
2022-10-25T21:48:52.749Z,62.24
2022-10-25T21:51:24.272Z,62.15
2022-10-25T21:56:30.578Z,62.05
2022-10-25T21:58:59.750Z,61.82
2022-10-25T22:01:29.635Z,61.94
2022-10-25T22:03:57.215Z,62.00
2022-10-25T22:06:25.893Z,62.31
2022-10-25T22:08:55.419Z,62.64
2022-10-25T22:11:29.702Z,62.55
2022-10-25T22:14:03.603Z,62.33
2022-10-25T22:16:32.937Z,62.22
2022-10-25T22:19:05.357Z,62.42
2022-10-25T22:21:38.379Z,62.66
2022-10-25T22:24:10.631Z,62.61
2022-10-25T22:26:41.511Z,62.55
2022-10-25T22:29:12.003Z,62.58
2022-10-25T22:31:39.834Z,62.64
2022-10-25T22:34:09.108Z,62.27
2022-10-25T22:36:39.858Z,62.68
2022-10-25T22:39:08.642Z,62.91
2022-10-25T22:41:36.289Z,62.58
2022-10-25T22:44:03.910Z,62.64
2022-10-25T22:46:35.121Z,62.78
2022-10-25T22:49:08.409Z,62.86
2022-10-25T22:51:36.334Z,63.05
2022-10-25T22:54:04.139Z,63.08
2022-10-25T22:56:31.952Z,62.98
2022-10-25T22:59:03.034Z,63.02
2022-10-25T23:01:33.838Z,63.00
2022-10-25T23:04:01.782Z,63.14
2022-10-25T23:06:32.548Z,63.11
2022-10-25T23:09:03.209Z,62.78
2022-10-25T23:11:33.830Z,62.45
2022-10-25T23:14:02.859Z,62.57
2022-10-25T23:16:30.561Z,62.01
2022-10-25T23:18:58.094Z,62.26
2022-10-25T23:21:27.693Z,62.35
2022-10-25T23:23:56.699Z,62.88
2022-10-25T23:26:31.125Z,62.80
2022-10-25T23:28:58.576Z,62.53
2022-10-25T23:31:26.471Z,62.63
2022-10-25T23:33:56.651Z,62.68
2022-10-25T23:36:27.617Z,62.84
2022-10-25T23:38:56.490Z,62.35
2022-10-25T23:41:23.942Z,62.60
2022-10-25T23:43:51.359Z,62.84
2022-10-25T23:46:18.461Z,62.62
2022-10-25T23:48:45.742Z,63.00
2022-10-25T23:51:18.354Z,62.91
2022-10-25T23:53:45.742Z,62.90
2022-10-25T23:56:14.090Z,62.87
2022-10-25T23:58:41.509Z,62.67
